Aktualne dane pomiarowe

Uwaga, wersja testowa! Automatyczne pobieranie danych za pomocą narzędzi lub skryptów to umożliwiających jest zabronione.

Dane meteo z obszaru Polski uzyskane na podstawie depesz SYNOP pobieranych co godzinę z NWS. Najedź myszką na symbol przedstawiony w tabeli, aby uzyskać informacje co do jego znaczenia. Prosimy pamiętać, że to testowa wersja strony, która jeszcze nie jest ukończona. Stworzono również jest krótki FAQ dotyczący korzystania z tej podstrony Anomalie temperatury w chwili obecnej odniesione są do okresu referencyjnego 1951-2016. Okres ten będzie później zmieniony na 1981-2010. Kliknij ikonę aby pobrać plik CSV. Kliknij ikonę aby wygenerować mapę synoptyczną dla danego terminu.

Wybierz Datę:    

        

Zamość (12595)

Dane terminowe dla wybranej stacji. Kliknij datę, aby otrzymać dane z tego terminu dla wszystkich stacji.

TemperaturaZachmurzenieWiatrCiśnienieOpadyPogoda
 Data t td wb tx tn tg rh  Nt Nl Cl Cm Ch ws wd g1 g2 wx mslp ppp ch 24h 12h t ww ww w1 w2  
2019-07-04 23:00:00 9.5 6.6 7.7--- 8220.0--3wx--31018.0 991.0 -0.8---------
2019-07-04 22:00:00 8.9 6.9 7.6--- 8720.0--3wx--31018.4 991.3 -0.6---------
2019-07-04 21:00:00 9.6 6.9 7.9--- 8320.0--2wx--21018.7 991.7 -0.1---------
2019-07-04 20:00:00 11.3 7.4 8.9--- 7720.0--3wx--31018.7 991.8 -0.1---------
2019-07-04 19:00:00 13.0 7.4 9.6--- 6920.0--2wx--21018.6 991.9 -0.4---------
2019-07-04 18:00:00 17.6 7.0 11.6 22.2 14.2- 5020.0wx-wx3wx-1031018.1 991.8 -0.8- 0.012------
2019-07-04 17:00:00 20.3 4.7 12.0--- 3620.0wxwxwx4wx--41017.9 991.9 -1.0---------
2019-07-04 16:00:00 21.1 4.2 12.1--- 3320.0wxwxwx6wx---1018.3 992.3 -1.2---------
2019-07-04 15:00:00 21.5 4.1 12.3--- 3220.0wxwxwx5wx-1051018.5 992.6 -1.2---------
2019-07-04 14:00:00 22.1 4.2 12.6--- 3120.0wxwxwx5wx--51018.8 992.9 -1.1---------
2019-07-04 13:00:00 20.5 3.7 11.7--- 3320.0wxwxwx6wx-1061019.5 993.5 -0.8---------
2019-07-04 12:00:00 19.5 4.0 11.3--- 3620.0wxwxwx6wx-1061019.9 993.8 -0.7- 0.06------
2019-07-04 11:00:00 20.8 5.2 12.4--- 3620.0wxwxwx6wx--61020.0 994.0 -0.7---------
2019-07-04 10:00:00 18.3 5.5 11.3--- 4320.0wxwxwx4wx-1041020.6 994.3 -0.7---------
2019-07-04 09:00:00 17.6 5.8 11.1--- 4620.0wxwxwx5wx--51020.8 994.5 -0.4---------
2019-07-04 08:00:00 17.4 6.6 11.4--- 4920.0wxwxwx2wx--21021.1 994.7 -0.2---------
2019-07-04 07:00:00 15.8 6.2 10.4--- 5320.0wxwxwx2wx---1021.5 995.0 0.3---------
2019-07-04 06:00:00 14.2 6.5 9.8 17.1 6.6 4 6020.0wxwxwx2wx--21021.6 994.9 0.5- 0.012wx-----
2019-07-04 05:00:00 13.1 7.5 9.7--- 6920.0--1wx--11021.7 994.9 0.8---------
2019-07-04 04:00:00 10.5 8.4 9.1--- 8720.0--2wx--21021.7 994.7 0.7---------
2019-07-04 03:00:00 8.2 6.7 7.2--- 9020.0--2wx--21021.6 994.4 0.5---------
2019-07-04 02:00:00 6.6 4.9 5.5--- 8920.0--1wx--11021.5 994.1 0.2---------
2019-07-04 01:00:00 6.9 4.7 5.5--- 8620.0--1wx--11021.3 994.0 0.1---------
2019-07-04 00:00:00 7.1 5.4 6.0--- 8920.0--3wx--31021.2 993.9 0.2- 0.06------
2019-07-03 23:00:00 7.9 5.7 6.5--- 8620.0--2wx--21021.1 993.9 0.5---------
2019-07-03 22:00:00 7.8 5.6 6.4--- 8620.0--2wx--21021.1 993.9 1.3---------
2019-07-03 21:00:00 9.0 6.1 7.2--- 8220.0--2wx--21020.8 993.7 1.6---------
2019-07-03 20:00:00 11.8 5.9 8.4--- 6720.0--2wx--21020.2 993.4 1.3---------
2019-07-03 19:00:00 14.0 5.9 9.4--- 5814.0--2wx--21019.2 992.6 0.7---------
2019-07-03 18:00:00 17.1 5.7 10.8 21.9 16.1- 4720.0wxwxwx3wx-1231018.4 992.1 0.2- 0.012------
2019-07-03 17:00:00 19.6 4.9 11.7--- 3820.0wxwxwx5wx--51018.2 992.1 0.2---------
2019-07-03 16:00:00 20.6 5.8 12.5--- 3820.0wxwxwx6wx-1161017.9 991.9 -0.1---------
2019-07-03 15:00:00 20.5 4.9 12.1--- 3620.0wxwxwx6wx-1261017.9 991.9 -0.1---------
2019-07-03 14:00:00 20.5 5.3 12.3--- 3720.0wxwxwx5wx-1251017.9 991.9 -0.1---------
2019-07-03 13:00:00 21.3 6.0 12.9--- 3720.0wxwxwx7wx-1171017.9 992.0 0.0---------
2019-07-03 12:00:00 20.6 5.0 12.2--- 3620.0wxwxwx6wx11--1018.0 992.0 -0.1---------
2019-07-03 11:00:00 20.9 6.4 12.9--- 3920.0wxwxwx7wx121271018.0 992.0 0.1---------
2019-07-03 10:00:00 19.5 6.2 12.2--- 4220.0wxwxwx6wx121261018.1 992.0 0.1---------
2019-07-03 09:00:00 19.0 8.0 12.7--- 4920.0wxwxwx6wx---1018.2 992.1 0.0---------
2019-07-03 08:00:00 18.5 7.6 12.3--- 4920.0wxwxwx3wx--31018.1 991.9 -0.1---------
2019-07-03 07:00:00 17.4 6.9 11.5--- 5020.0wxwxwxwx4wx--41018.2 991.9 0.2---------
2019-07-03 06:00:00 16.3 8.5 11.7 21.4 9.5 8 6020.0wxwxwxwx3wx--31018.5 992.1 0.7- 0.012wx-----
2019-07-03 05:00:00 15.4 8.4 11.2--- 6320.0--2wx--21018.5 992.0 1.1---------
2019-07-03 04:00:00 14.1 10.1 11.5--- 7720.0--2wx--21018.3 991.7 1.2---------
2019-07-03 03:00:00 10.0 8.8 9.1--- 9220.0--1wx--11018.4 991.4 1.1---------
2019-07-03 02:00:00 9.6 7.9 8.4--- 8920.0--2wx--21017.9 990.9 0.7---------
2019-07-03 01:00:00 12.0 9.0 10.0--- 8220.0--4wx--41017.2 990.5 0.5---------
2019-07-03 00:00:00 11.0 9.4 9.9--- 9020.0--3wx--31017.1 990.3 0.5- 0.06------
3.7 ms

 

Print Friendly, PDF & Email